Aeroporto :
LOGIN :

Iscrizione | Disclaimer

   EN    FR    IT 

 










Sommario :    VFR   VFR Marginale   IFR   IFR Intensivo   IFR Molto Intensivo
Visibilità : 
Base nubi : 
>= 8 km
>= 3000ft
5 / 8 km
1000 / 3000 ft
1500m / 5 km
500 / 1000 ft
800 / 1500m
200 / 500 ft
< 800m
< 200 ft
Simboli :   Temporali  Nebbia  Neve Forte  Precipitazioni Forti  Vento > 20 kt
SIGMETs :   Varie  Temporali  Ghiacco  Turbolenza  Onda orograficha  Ceneri Vulcaniche






- Altitudine del aeroporto : 352 ft
- Codice IATA : ARW


LRAR - Arad International

ULTIMO METAR :
  • 161100Z 18011KT 140V210 CAVOK 38/13 Q1011

METARs OBSOLETI :
  • 161030Z 17011KT 150V210 CAVOK 38/13 Q1012
  • 161000Z 16011KT CAVOK 37/13 Q1012
  • 160930Z 20013KT CAVOK 37/12 Q1012
  • 160900Z 18010KT CAVOK 37/11 Q1012
  • 160830Z 17011KT 150V210 CAVOK 37/12 Q1012
  • 160800Z 16009KT 120V190 CAVOK 36/12 Q1012
  • 160730Z 15010KT CAVOK 35/13 Q1012
  • 160700Z 14008KT 120V180 CAVOK 34/16 Q1012
  • 160630Z 14006KT CAVOK 32/18 Q1012

TAF TAF LRAR
Valido dal 16 a 09 ore il 16 a 18 ore UTC


160800Z 1609/1618 16008KT CAVOK
TEMPO 1613/1616 SCT045CB



MetMap, La meteo Aeronautica in un colpo d'occhio ! - Copyright ORBIFLY Dicembre 2007 - Disclaimer

ORBIFLY MET'MAP TEAM :

Programmazione e sviluppo : Alexandra Zaïnal
Concezione : Baudouin d'Aumeries
Supporto tecnico e logistico : Manuel Goepfert
Aiuto : Marc-Olivier Méhu
Aiuto per la traduzione : Arnaldo La Scala




FONTI E CREDITI :

   NOAA